sensor_id;sensor_type;location;lat;lon;timestamp;temperature;humidity
41884;DHT22;27566;50.930;5.328;2023-12-20T00:01:05;7.80;92.00
41884;DHT22;27566;50.930;5.328;2023-12-20T00:03:31;7.80;92.00
41884;DHT22;27566;50.930;5.328;2023-12-20T00:05:57;7.70;92.10
41884;DHT22;27566;50.930;5.328;2023-12-20T00:10:48;7.60;91.90
41884;DHT22;27566;50.930;5.328;2023-12-20T00:13:14;7.50;92.20
41884;DHT22;27566;50.930;5.328;2023-12-20T00:18:07;7.40;92.00
41884;DHT22;27566;50.930;5.328;2023-12-20T00:20:33;7.40;92.50
41884;DHT22;27566;50.930;5.328;2023-12-20T00:25:25;7.60;92.70
41884;DHT22;27566;50.930;5.328;2023-12-20T00:30:17;7.70;92.40
41884;DHT22;27566;50.930;5.328;2023-12-20T00:32:42;7.60;92.60
41884;DHT22;27566;50.930;5.328;2023-12-20T00:35:15;7.50;92.40
41884;DHT22;27566;50.930;5.328;2023-12-20T00:37:41;7.40;92.30
41884;DHT22;27566;50.930;5.328;2023-12-20T00:40:07;7.30;92.30
41884;DHT22;27566;50.930;5.328;2023-12-20T00:42:33;7.30;92.20
41884;DHT22;27566;50.930;5.328;2023-12-20T00:44:59;7.10;92.00
41884;DHT22;27566;50.930;5.328;2023-12-20T00:47:25;7.10;92.30
41884;DHT22;27566;50.930;5.328;2023-12-20T00:49:51;7.20;92.60
41884;DHT22;27566;50.930;5.328;2023-12-20T00:52:18;7.30;92.70
41884;DHT22;27566;50.930;5.328;2023-12-20T00:54:44;7.40;92.70
41884;DHT22;27566;50.930;5.328;2023-12-20T00:57:10;7.40;92.60
41884;DHT22;27566;50.930;5.328;2023-12-20T00:59:36;7.30;92.40
41884;DHT22;27566;50.930;5.328;2023-12-20T01:02:01;7.30;92.40
41884;DHT22;27566;50.930;5.328;2023-12-20T01:04:27;7.30;92.30
41884;DHT22;27566;50.930;5.328;2023-12-20T01:06:53;7.30;92.30
41884;DHT22;27566;50.930;5.328;2023-12-20T01:09:19;7.50;92.60
41884;DHT22;27566;50.930;5.328;2023-12-20T01:11:44;7.30;92.50
41884;DHT22;27566;50.930;5.328;2023-12-20T01:14:12;8.00;92.60
41884;DHT22;27566;50.930;5.328;2023-12-20T01:16:37;7.30;92.40
41884;DHT22;27566;50.930;5.328;2023-12-20T01:19:03;7.30;92.20
41884;DHT22;27566;50.930;5.328;2023-12-20T01:21:29;7.40;92.50
41884;DHT22;27566;50.930;5.328;2023-12-20T01:23:56;7.60;92.40
41884;DHT22;27566;50.930;5.328;2023-12-20T01:26:21;7.50;92.60
41884;DHT22;27566;50.930;5.328;2023-12-20T01:28:47;8.20;93.00
41884;DHT22;27566;50.930;5.328;2023-12-20T01:31:13;7.60;92.20
41884;DHT22;27566;50.930;5.328;2023-12-20T01:33:38;7.50;92.40
41884;DHT22;27566;50.930;5.328;2023-12-20T01:36:04;7.50;92.50
41884;DHT22;27566;50.930;5.328;2023-12-20T01:38:30;7.40;91.90
41884;DHT22;27566;50.930;5.328;2023-12-20T01:40:56;8.20;91.90
41884;DHT22;27566;50.930;5.328;2023-12-20T01:45:48;7.00;91.20
41884;DHT22;27566;50.930;5.328;2023-12-20T01:48:15;6.80;91.20
41884;DHT22;27566;50.930;5.328;2023-12-20T01:50:41;7.10;91.50
41884;DHT22;27566;50.930;5.328;2023-12-20T01:53:10;6.70;91.50
41884;DHT22;27566;50.930;5.328;2023-12-20T01:55:39;6.60;91.40
41884;DHT22;27566;50.930;5.328;2023-12-20T01:58:09;6.60;91.60
41884;DHT22;27566;50.930;5.328;2023-12-20T02:00:36;6.60;91.80
41884;DHT22;27566;50.930;5.328;2023-12-20T02:03:02;6.60;92.10
41884;DHT22;27566;50.930;5.328;2023-12-20T02:05:33;6.70;92.30
41884;DHT22;27566;50.930;5.328;2023-12-20T02:07:59;6.70;92.30
41884;DHT22;27566;50.930;5.328;2023-12-20T02:10:25;6.70;92.30
41884;DHT22;27566;50.930;5.328;2023-12-20T02:12:51;6.60;92.30
41884;DHT22;27566;50.930;5.328;2023-12-20T02:15:17;6.60;92.30
41884;DHT22;27566;50.930;5.328;2023-12-20T02:20:09;6.50;92.10
41884;DHT22;27566;50.930;5.328;2023-12-20T02:22:35;6.50;92.50
41884;DHT22;27566;50.930;5.328;2023-12-20T02:25:01;6.50;92.40
41884;DHT22;27566;50.930;5.328;2023-12-20T02:27:28;6.50;92.00
41884;DHT22;27566;50.930;5.328;2023-12-20T02:29:54;6.40;92.30
41884;DHT22;27566;50.930;5.328;2023-12-20T02:32:21;6.40;92.30
41884;DHT22;27566;50.930;5.328;2023-12-20T02:34:48;6.40;92.20
41884;DHT22;27566;50.930;5.328;2023-12-20T02:37:14;6.40;92.40
41884;DHT22;27566;50.930;5.328;2023-12-20T02:42:06;6.40;92.10
41884;DHT22;27566;50.930;5.328;2023-12-20T02:44:31;6.30;92.40
41884;DHT22;27566;50.930;5.328;2023-12-20T02:46:57;6.30;92.40
41884;DHT22;27566;50.930;5.328;2023-12-20T02:49:23;6.30;92.40
41884;DHT22;27566;50.930;5.328;2023-12-20T02:51:48;6.30;92.30
41884;DHT22;27566;50.930;5.328;2023-12-20T02:54:14;6.30;92.00
41884;DHT22;27566;50.930;5.328;2023-12-20T02:56:40;6.30;92.20
41884;DHT22;27566;50.930;5.328;2023-12-20T02:59:05;6.30;92.20
41884;DHT22;27566;50.930;5.328;2023-12-20T03:01:32;6.30;92.10
41884;DHT22;27566;50.930;5.328;2023-12-20T03:06:24;6.20;91.90
41884;DHT22;27566;50.930;5.328;2023-12-20T03:08:50;6.20;92.20
41884;DHT22;27566;50.930;5.328;2023-12-20T03:13:42;6.40;92.20
41884;DHT22;27566;50.930;5.328;2023-12-20T03:16:12;6.50;92.60
41884;DHT22;27566;50.930;5.328;2023-12-20T03:18:38;6.60;92.70
41884;DHT22;27566;50.930;5.328;2023-12-20T03:21:05;6.70;92.70
41884;DHT22;27566;50.930;5.328;2023-12-20T03:23:31;6.80;92.80
41884;DHT22;27566;50.930;5.328;2023-12-20T03:25:58;6.90;92.70
41884;DHT22;27566;50.930;5.328;2023-12-20T03:28:24;7.00;92.70
41884;DHT22;27566;50.930;5.328;2023-12-20T03:30:50;7.20;92.40
41884;DHT22;27566;50.930;5.328;2023-12-20T03:35:42;7.20;92.40
41884;DHT22;27566;50.930;5.328;2023-12-20T03:38:07;7.20;92.70
41884;DHT22;27566;50.930;5.328;2023-12-20T03:40:33;7.30;92.60
41884;DHT22;27566;50.930;5.328;2023-12-20T03:42:59;7.20;92.10
41884;DHT22;27566;50.930;5.328;2023-12-20T03:47:51;7.20;92.00
41884;DHT22;27566;50.930;5.328;2023-12-20T03:50:23;7.20;92.30
41884;DHT22;27566;50.930;5.328;2023-12-20T03:52:49;7.00;92.00
41884;DHT22;27566;50.930;5.328;2023-12-20T03:55:15;7.10;92.30
41884;DHT22;27566;50.930;5.328;2023-12-20T03:57:41;7.20;92.40
41884;DHT22;27566;50.930;5.328;2023-12-20T04:00:11;7.30;92.20
41884;DHT22;27566;50.930;5.328;2023-12-20T04:02:40;7.30;92.40
41884;DHT22;27566;50.930;5.328;2023-12-20T04:05:07;7.40;92.40
41884;DHT22;27566;50.930;5.328;2023-12-20T04:07:33;7.40;92.40
41884;DHT22;27566;50.930;5.328;2023-12-20T04:09:59;7.40;92.50
41884;DHT22;27566;50.930;5.328;2023-12-20T04:17:18;7.60;92.20
41884;DHT22;27566;50.930;5.328;2023-12-20T04:19:43;7.50;92.60
41884;DHT22;27566;50.930;5.328;2023-12-20T04:24:35;7.60;92.20
41884;DHT22;27566;50.930;5.328;2023-12-20T04:27:01;7.70;92.90
41884;DHT22;27566;50.930;5.328;2023-12-20T04:29:27;7.80;92.20
41884;DHT22;27566;50.930;5.328;2023-12-20T04:31:53;7.70;92.70
41884;DHT22;27566;50.930;5.328;2023-12-20T04:34:19;7.70;92.50
41884;DHT22;27566;50.930;5.328;2023-12-20T04:36:45;7.80;92.60
41884;DHT22;27566;50.930;5.328;2023-12-20T04:39:12;7.70;92.60
41884;DHT22;27566;50.930;5.328;2023-12-20T04:41:38;7.80;92.10
41884;DHT22;27566;50.930;5.328;2023-12-20T04:44:05;7.70;92.50
41884;DHT22;27566;50.930;5.328;2023-12-20T04:46:31;7.70;92.50
41884;DHT22;27566;50.930;5.328;2023-12-20T04:48:57;5.60;91.90
41884;DHT22;27566;50.930;5.328;2023-12-20T04:53:48;7.80;92.10
41884;DHT22;27566;50.930;5.328;2023-12-20T04:56:14;7.80;92.40
41884;DHT22;27566;50.930;5.328;2023-12-20T04:58:40;7.90;92.00
41884;DHT22;27566;50.930;5.328;2023-12-20T05:08:24;7.80;92.00
41884;DHT22;27566;50.930;5.328;2023-12-20T05:10:54;7.90;92.00
41884;DHT22;27566;50.930;5.328;2023-12-20T05:13:20;7.90;92.20
41884;DHT22;27566;50.930;5.328;2023-12-20T05:15:45;8.00;92.20
41884;DHT22;27566;50.930;5.328;2023-12-20T05:18:12;7.90;91.90
41884;DHT22;27566;50.930;5.328;2023-12-20T05:20:38;7.90;92.10
41884;DHT22;27566;50.930;5.328;2023-12-20T05:23:04;7.90;92.20
41884;DHT22;27566;50.930;5.328;2023-12-20T05:25:29;7.90;92.10
41884;DHT22;27566;50.930;5.328;2023-12-20T05:30:22;7.90;91.70
41884;DHT22;27566;50.930;5.328;2023-12-20T05:32:48;7.80;92.00
41884;DHT22;27566;50.930;5.328;2023-12-20T05:35:13;7.70;92.60
41884;DHT22;27566;50.930;5.328;2023-12-20T05:40:06;7.60;91.50
41884;DHT22;27566;50.930;5.328;2023-12-20T05:42:32;7.40;91.60
41884;DHT22;27566;50.930;5.328;2023-12-20T05:49:49;7.30;91.20
41884;DHT22;27566;50.930;5.328;2023-12-20T05:57:07;6.90;91.10
41884;DHT22;27566;50.930;5.328;2023-12-20T05:59:33;6.90;91.70
41884;DHT22;27566;50.930;5.328;2023-12-20T06:04:25;6.70;91.30
41884;DHT22;27566;50.930;5.328;2023-12-20T06:09:17;6.70;91.40
41884;DHT22;27566;50.930;5.328;2023-12-20T06:11:42;6.60;91.50
41884;DHT22;27566;50.930;5.328;2023-12-20T06:16:34;6.50;91.50
41884;DHT22;27566;50.930;5.328;2023-12-20T06:19:00;6.40;91.70
41884;DHT22;27566;50.930;5.328;2023-12-20T06:21:25;6.40;92.10
41884;DHT22;27566;50.930;5.328;2023-12-20T06:26:17;6.30;91.70
41884;DHT22;27566;50.930;5.328;2023-12-20T06:31:09;6.30;91.70
41884;DHT22;27566;50.930;5.328;2023-12-20T06:36:00;6.70;92.20
41884;DHT22;27566;50.930;5.328;2023-12-20T06:40:52;6.80;92.30
41884;DHT22;27566;50.930;5.328;2023-12-20T06:43:19;7.00;92.70
41884;DHT22;27566;50.930;5.328;2023-12-20T06:48:10;7.10;92.30
41884;DHT22;27566;50.930;5.328;2023-12-20T06:50:38;7.20;93.00
41884;DHT22;27566;50.930;5.328;2023-12-20T06:53:06;7.40;93.00
41884;DHT22;27566;50.930;5.328;2023-12-20T06:55:33;7.50;92.30
41884;DHT22;27566;50.930;5.328;2023-12-20T06:58:01;7.40;92.60
41884;DHT22;27566;50.930;5.328;2023-12-20T07:00:27;7.40;92.50
41884;DHT22;27566;50.930;5.328;2023-12-20T07:05:19;7.30;91.70
41884;DHT22;27566;50.930;5.328;2023-12-20T07:07:46;7.20;92.10
41884;DHT22;27566;50.930;5.328;2023-12-20T08:09:21;6.60;92.10
41884;DHT22;27566;50.930;5.328;2023-12-20T08:53:35;8.10;92.00
41884;DHT22;27566;50.930;5.328;2023-12-20T10:22:15;9.80;91.20
41884;DHT22;27566;50.930;5.328;2023-12-20T10:28:16;9.90;91.20
41884;DHT22;27566;50.930;5.328;2023-12-20T10:30:58;9.80;90.30
41884;DHT22;27566;50.930;5.328;2023-12-20T11:57:20;10.40;88.30
41884;DHT22;27566;50.930;5.328;2023-12-20T12:00:40;10.40;88.00
41884;DHT22;27566;50.930;5.328;2023-12-20T12:10:32;10.20;89.00
41884;DHT22;27566;50.930;5.328;2023-12-20T12:13:00;10.10;89.50
41884;DHT22;27566;50.930;5.328;2023-12-20T12:15:27;9.00;89.40
41884;DHT22;27566;50.930;5.328;2023-12-20T12:17:56;10.10;90.30
41884;DHT22;27566;50.930;5.328;2023-12-20T12:20:23;10.10;90.10
41884;DHT22;27566;50.930;5.328;2023-12-20T12:52:40;10.30;90.60
41884;DHT22;27566;50.930;5.328;2023-12-20T12:55:11;10.40;90.50
41884;DHT22;27566;50.930;5.328;2023-12-20T12:57:39;10.40;90.50
41884;DHT22;27566;50.930;5.328;2023-12-20T13:00:06;10.50;90.50
41884;DHT22;27566;50.930;5.328;2023-12-20T13:02:34;10.60;90.10
41884;DHT22;27566;50.930;5.328;2023-12-20T13:07:28;10.60;90.00
41884;DHT22;27566;50.930;5.328;2023-12-20T13:09:54;10.60;90.50
41884;DHT22;27566;50.930;5.328;2023-12-20T13:12:20;10.60;90.30
41884;DHT22;27566;50.930;5.328;2023-12-20T13:14:47;10.60;89.70
41884;DHT22;27566;50.930;5.328;2023-12-20T13:17:13;10.50;89.50
41884;DHT22;27566;50.930;5.328;2023-12-20T13:19:42;10.60;90.60
41884;DHT22;27566;50.930;5.328;2023-12-20T13:22:08;10.50;90.10
41884;DHT22;27566;50.930;5.328;2023-12-20T13:24:34;10.50;90.20
41884;DHT22;27566;50.930;5.328;2023-12-20T13:27:00;10.60;90.30
41884;DHT22;27566;50.930;5.328;2023-12-20T13:29:26;10.60;90.80
41884;DHT22;27566;50.930;5.328;2023-12-20T13:31:55;8.50;89.80
41884;DHT22;27566;50.930;5.328;2023-12-20T13:34:20;10.80;90.20
41884;DHT22;27566;50.930;5.328;2023-12-20T13:36:46;10.80;89.70
41884;DHT22;27566;50.930;5.328;2023-12-20T13:39:13;10.80;90.20
41884;DHT22;27566;50.930;5.328;2023-12-20T13:41:39;10.80;90.40
41884;DHT22;27566;50.930;5.328;2023-12-20T13:44:05;10.90;90.10
41884;DHT22;27566;50.930;5.328;2023-12-20T13:46:31;10.70;90.20
41884;DHT22;27566;50.930;5.328;2023-12-20T14:08:31;10.60;89.10
41884;DHT22;27566;50.930;5.328;2023-12-20T14:10:59;10.60;88.70
41884;DHT22;27566;50.930;5.328;2023-12-20T14:13:27;10.50;88.60
41884;DHT22;27566;50.930;5.328;2023-12-20T14:15:53;10.50;89.20
41884;DHT22;27566;50.930;5.328;2023-12-20T14:18:20;10.60;89.30
41884;DHT22;27566;50.930;5.328;2023-12-20T14:20:46;10.50;89.50
41884;DHT22;27566;50.930;5.328;2023-12-20T14:23:14;10.90;88.80
41884;DHT22;27566;50.930;5.328;2023-12-20T14:25:43;10.70;88.50
41884;DHT22;27566;50.930;5.328;2023-12-20T14:28:09;10.70;89.10
41884;DHT22;27566;50.930;5.328;2023-12-20T14:30:35;10.70;88.30
41884;DHT22;27566;50.930;5.328;2023-12-20T14:33:04;10.70;88.60
41884;DHT22;27566;50.930;5.328;2023-12-20T14:35:30;10.70;87.80
41884;DHT22;27566;50.930;5.328;2023-12-20T14:37:56;10.70;88.30
41884;DHT22;27566;50.930;5.328;2023-12-20T14:40:22;10.70;88.30
41884;DHT22;27566;50.930;5.328;2023-12-20T14:42:47;10.60;87.40
41884;DHT22;27566;50.930;5.328;2023-12-20T14:45:15;10.70;87.50
41884;DHT22;27566;50.930;5.328;2023-12-20T14:47:42;10.70;88.40
41884;DHT22;27566;50.930;5.328;2023-12-20T14:50:08;10.70;88.00
41884;DHT22;27566;50.930;5.328;2023-12-20T14:52:34;10.70;87.20
41884;DHT22;27566;50.930;5.328;2023-12-20T14:55:02;10.60;87.00
41884;DHT22;27566;50.930;5.328;2023-12-20T14:59:59;10.60;87.10
41884;DHT22;27566;50.930;5.328;2023-12-20T15:02:25;10.60;86.90
41884;DHT22;27566;50.930;5.328;2023-12-20T15:04:51;10.60;87.80
41884;DHT22;27566;50.930;5.328;2023-12-20T15:07:18;10.60;88.40
41884;DHT22;27566;50.930;5.328;2023-12-20T15:09:44;10.50;87.60
41884;DHT22;27566;50.930;5.328;2023-12-20T15:12:15;10.40;90.10
41884;DHT22;27566;50.930;5.328;2023-12-20T15:19:33;10.40;87.00
41884;DHT22;27566;50.930;5.328;2023-12-20T15:24:25;10.40;86.80
41884;DHT22;27566;50.930;5.328;2023-12-20T15:27:04;10.30;87.30
41884;DHT22;27566;50.930;5.328;2023-12-20T15:31:57;10.20;86.60
41884;DHT22;27566;50.930;5.328;2023-12-20T15:34:42;10.30;86.80
41884;DHT22;27566;50.930;5.328;2023-12-20T15:37:08;10.20;89.80
41884;DHT22;27566;50.930;5.328;2023-12-20T15:42:00;10.30;86.90
41884;DHT22;27566;50.930;5.328;2023-12-20T15:49:18;10.20;86.40
41884;DHT22;27566;50.930;5.328;2023-12-20T15:51:44;10.50;88.90
41884;DHT22;27566;50.930;5.328;2023-12-20T15:54:10;10.20;87.50
41884;DHT22;27566;50.930;5.328;2023-12-20T15:59:03;10.20;86.50
41884;DHT22;27566;50.930;5.328;2023-12-20T16:01:32;10.20;89.20
41884;DHT22;27566;50.930;5.328;2023-12-20T16:04:01;10.30;90.80
41884;DHT22;27566;50.930;5.328;2023-12-20T16:06:29;10.30;89.00
41884;DHT22;27566;50.930;5.328;2023-12-20T16:08:55;10.20;87.20
41884;DHT22;27566;50.930;5.328;2023-12-20T16:11:21;10.20;87.10
41884;DHT22;27566;50.930;5.328;2023-12-20T16:13:47;10.30;86.30
41884;DHT22;27566;50.930;5.328;2023-12-20T16:16:13;10.30;87.20
41884;DHT22;27566;50.930;5.328;2023-12-20T16:18:40;10.30;87.30
41884;DHT22;27566;50.930;5.328;2023-12-20T16:21:05;10.30;88.00
41884;DHT22;27566;50.930;5.328;2023-12-20T16:25:57;10.30;86.30
41884;DHT22;27566;50.930;5.328;2023-12-20T16:28:23;10.30;87.20
41884;DHT22;27566;50.930;5.328;2023-12-20T16:30:53;10.30;87.90
41884;DHT22;27566;50.930;5.328;2023-12-20T16:40:39;10.30;86.40
41884;DHT22;27566;50.930;5.328;2023-12-20T16:43:05;10.40;86.40
41884;DHT22;27566;50.930;5.328;2023-12-20T16:47:57;10.40;86.40
41884;DHT22;27566;50.930;5.328;2023-12-20T16:55:17;10.50;86.20
41884;DHT22;27566;50.930;5.328;2023-12-20T16:57:43;10.50;86.10
41884;DHT22;27566;50.930;5.328;2023-12-20T17:00:09;10.40;86.10
41884;DHT22;27566;50.930;5.328;2023-12-20T17:02:35;10.40;86.80
41884;DHT22;27566;50.930;5.328;2023-12-20T17:05:01;10.50;86.10
41884;DHT22;27566;50.930;5.328;2023-12-20T17:14:47;10.50;85.90
41884;DHT22;27566;50.930;5.328;2023-12-20T17:17:13;10.80;89.40
41884;DHT22;27566;50.930;5.328;2023-12-20T17:19:39;10.40;85.90
41884;DHT22;27566;50.930;5.328;2023-12-20T17:24:34;10.50;86.00
41884;DHT22;27566;50.930;5.328;2023-12-20T17:27:02;10.50;87.70
41884;DHT22;27566;50.930;5.328;2023-12-20T17:31:54;10.60;85.90
41884;DHT22;27566;50.930;5.328;2023-12-20T17:36:46;10.60;85.90
41884;DHT22;27566;50.930;5.328;2023-12-20T17:41:42;10.50;86.00
41884;DHT22;27566;50.930;5.328;2023-12-20T17:44:09;10.50;88.90
41884;DHT22;27566;50.930;5.328;2023-12-20T17:49:01;10.60;86.30
41884;DHT22;27566;50.930;5.328;2023-12-20T17:53:54;10.60;86.40
41884;DHT22;27566;50.930;5.328;2023-12-20T17:56:20;10.60;88.10
41884;DHT22;27566;50.930;5.328;2023-12-20T17:58:46;10.60;86.70
41884;DHT22;27566;50.930;5.328;2023-12-20T18:03:40;10.60;87.20
41884;DHT22;27566;50.930;5.328;2023-12-20T18:06:07;10.60;87.50
41884;DHT22;27566;50.930;5.328;2023-12-20T18:10:59;10.50;87.70
41884;DHT22;27566;50.930;5.328;2023-12-20T18:13:25;10.50;87.70
41884;DHT22;27566;50.930;5.328;2023-12-20T18:15:51;10.50;87.70
41884;DHT22;27566;50.930;5.328;2023-12-20T18:20:43;10.60;87.90
41884;DHT22;27566;50.930;5.328;2023-12-20T18:28:01;10.70;87.60
41884;DHT22;27566;50.930;5.328;2023-12-20T18:32:53;10.70;87.70
41884;DHT22;27566;50.930;5.328;2023-12-20T18:37:45;10.70;87.80
41884;DHT22;27566;50.930;5.328;2023-12-20T18:42:38;10.70;87.60
41884;DHT22;27566;50.930;5.328;2023-12-20T18:45:06;10.80;88.90
41884;DHT22;27566;50.930;5.328;2023-12-20T18:50:00;10.80;87.40
41884;DHT22;27566;50.930;5.328;2023-12-20T18:52:28;10.90;87.10
41884;DHT22;27566;50.930;5.328;2023-12-20T18:57:20;11.00;87.10
41884;DHT22;27566;50.930;5.328;2023-12-20T19:02:12;10.80;86.80
41884;DHT22;27566;50.930;5.328;2023-12-20T19:04:38;10.90;86.70
41884;DHT22;27566;50.930;5.328;2023-12-20T19:07:04;10.90;88.40
41884;DHT22;27566;50.930;5.328;2023-12-20T19:09:33;11.00;90.20
41884;DHT22;27566;50.930;5.328;2023-12-20T19:11:59;11.00;87.60
41884;DHT22;27566;50.930;5.328;2023-12-20T19:14:25;10.90;87.20
41884;DHT22;27566;50.930;5.328;2023-12-20T19:19:17;11.00;86.10
41884;DHT22;27566;50.930;5.328;2023-12-20T19:21:43;10.90;85.90
41884;DHT22;27566;50.930;5.328;2023-12-20T19:24:09;11.00;86.70
41884;DHT22;27566;50.930;5.328;2023-12-20T19:26:35;11.00;86.80
41884;DHT22;27566;50.930;5.328;2023-12-20T19:31:27;11.00;85.40
41884;DHT22;27566;50.930;5.328;2023-12-20T19:33:53;11.10;87.00
41884;DHT22;27566;50.930;5.328;2023-12-20T19:36:21;11.10;85.30
41884;DHT22;27566;50.930;5.328;2023-12-20T19:38:47;11.00;85.20
41884;DHT22;27566;50.930;5.328;2023-12-20T19:43:39;11.10;85.10
41884;DHT22;27566;50.930;5.328;2023-12-20T19:48:32;11.10;85.00
41884;DHT22;27566;50.930;5.328;2023-12-20T19:53:24;11.10;84.80
41884;DHT22;27566;50.930;5.328;2023-12-20T19:55:52;11.10;84.80
41884;DHT22;27566;50.930;5.328;2023-12-20T20:05:37;11.10;84.60
41884;DHT22;27566;50.930;5.328;2023-12-20T20:08:04;11.10;84.60
41884;DHT22;27566;50.930;5.328;2023-12-20T20:15:22;11.10;84.50
41884;DHT22;27566;50.930;5.328;2023-12-20T20:17:48;11.10;86.30
41884;DHT22;27566;50.930;5.328;2023-12-20T20:22:41;11.10;84.30
41884;DHT22;27566;50.930;5.328;2023-12-20T20:27:33;11.10;84.70
41884;DHT22;27566;50.930;5.328;2023-12-20T20:29:59;11.10;85.50
41884;DHT22;27566;50.930;5.328;2023-12-20T20:34:53;11.10;85.10
41884;DHT22;27566;50.930;5.328;2023-12-20T20:37:19;11.10;85.20
41884;DHT22;27566;50.930;5.328;2023-12-20T20:42:11;11.10;85.40
41884;DHT22;27566;50.930;5.328;2023-12-20T20:47:03;11.10;85.60
41884;DHT22;27566;50.930;5.328;2023-12-20T20:54:24;11.10;85.30
41884;DHT22;27566;50.930;5.328;2023-12-20T20:59:19;11.10;85.40
41884;DHT22;27566;50.930;5.328;2023-12-20T21:01:45;11.10;85.30
41884;DHT22;27566;50.930;5.328;2023-12-20T21:04:11;11.10;86.10
41884;DHT22;27566;50.930;5.328;2023-12-20T21:06:37;11.20;85.30
41884;DHT22;27566;50.930;5.328;2023-12-20T21:09:03;11.20;86.60
41884;DHT22;27566;50.930;5.328;2023-12-20T21:11:30;11.20;85.90
41884;DHT22;27566;50.930;5.328;2023-12-20T21:13:56;11.20;85.80
41884;DHT22;27566;50.930;5.328;2023-12-20T21:16:22;11.20;85.10
41884;DHT22;27566;50.930;5.328;2023-12-20T21:18:48;11.20;86.00
41884;DHT22;27566;50.930;5.328;2023-12-20T21:21:14;11.20;86.40
41884;DHT22;27566;50.930;5.328;2023-12-20T21:23:40;11.20;86.00
41884;DHT22;27566;50.930;5.328;2023-12-20T21:26:07;11.20;86.40
41884;DHT22;27566;50.930;5.328;2023-12-20T21:28:33;11.20;86.00
41884;DHT22;27566;50.930;5.328;2023-12-20T21:30:59;11.20;86.20
41884;DHT22;27566;50.930;5.328;2023-12-20T21:33:25;11.20;86.50
41884;DHT22;27566;50.930;5.328;2023-12-20T21:35:51;11.30;85.80
41884;DHT22;27566;50.930;5.328;2023-12-20T21:40:44;11.20;86.10
41884;DHT22;27566;50.930;5.328;2023-12-20T21:43:10;11.20;86.10
41884;DHT22;27566;50.930;5.328;2023-12-20T21:45:36;11.20;87.40
41884;DHT22;27566;50.930;5.328;2023-12-20T21:48:06;11.20;86.70
41884;DHT22;27566;50.930;5.328;2023-12-20T21:50:32;11.20;87.50
41884;DHT22;27566;50.930;5.328;2023-12-20T21:52:58;11.10;87.60
41884;DHT22;27566;50.930;5.328;2023-12-20T21:55:23;11.10;88.10
41884;DHT22;27566;50.930;5.328;2023-12-20T21:57:49;11.10;88.90
41884;DHT22;27566;50.930;5.328;2023-12-20T22:00:16;10.90;88.50
41884;DHT22;27566;50.930;5.328;2023-12-20T22:02:42;10.90;89.10
41884;DHT22;27566;50.930;5.328;2023-12-20T22:05:09;10.90;90.20
41884;DHT22;27566;50.930;5.328;2023-12-20T22:07:35;10.80;90.10
41884;DHT22;27566;50.930;5.328;2023-12-20T22:10:00;10.80;90.30
41884;DHT22;27566;50.930;5.328;2023-12-20T22:12:27;10.80;90.10
41884;DHT22;27566;50.930;5.328;2023-12-20T22:14:53;10.70;90.40
41884;DHT22;27566;50.930;5.328;2023-12-20T22:17:19;10.70;90.80
41884;DHT22;27566;50.930;5.328;2023-12-20T22:19:44;10.70;90.60
41884;DHT22;27566;50.930;5.328;2023-12-20T22:22:10;10.70;90.70
41884;DHT22;27566;50.930;5.328;2023-12-20T22:24:36;10.60;90.90
41884;DHT22;27566;50.930;5.328;2023-12-20T22:27:02;10.60;90.80
41884;DHT22;27566;50.930;5.328;2023-12-20T22:31:56;10.60;90.90
41884;DHT22;27566;50.930;5.328;2023-12-20T22:34:22;10.60;91.00
41884;DHT22;27566;50.930;5.328;2023-12-20T22:36:48;10.60;91.30
41884;DHT22;27566;50.930;5.328;2023-12-20T22:39:13;10.60;91.40
41884;DHT22;27566;50.930;5.328;2023-12-20T22:44:07;10.70;91.30
41884;DHT22;27566;50.930;5.328;2023-12-20T22:46:34;10.70;91.70
41884;DHT22;27566;50.930;5.328;2023-12-20T22:49:00;10.70;91.70
41884;DHT22;27566;50.930;5.328;2023-12-20T22:51:27;10.70;91.80
41884;DHT22;27566;50.930;5.328;2023-12-20T22:53:54;10.70;91.90
41884;DHT22;27566;50.930;5.328;2023-12-20T22:56:22;10.70;91.90
41884;DHT22;27566;50.930;5.328;2023-12-20T22:58:47;10.70;92.00
41884;DHT22;27566;50.930;5.328;2023-12-20T23:01:13;10.70;91.90
41884;DHT22;27566;50.930;5.328;2023-12-20T23:03:39;10.70;91.90
41884;DHT22;27566;50.930;5.328;2023-12-20T23:06:05;10.70;92.00
41884;DHT22;27566;50.930;5.328;2023-12-20T23:08:30;10.70;91.90
41884;DHT22;27566;50.930;5.328;2023-12-20T23:10:57;10.70;91.70
41884;DHT22;27566;50.930;5.328;2023-12-20T23:15:49;10.70;91.80
41884;DHT22;27566;50.930;5.328;2023-12-20T23:18:14;10.70;92.20
41884;DHT22;27566;50.930;5.328;2023-12-20T23:23:08;10.70;91.90
41884;DHT22;27566;50.930;5.328;2023-12-20T23:25:34;10.70;91.90
41884;DHT22;27566;50.930;5.328;2023-12-20T23:28:00;10.70;92.30
41884;DHT22;27566;50.930;5.328;2023-12-20T23:32:51;10.70;91.90
41884;DHT22;27566;50.930;5.328;2023-12-20T23:35:17;10.80;92.30
41884;DHT22;27566;50.930;5.328;2023-12-20T23:37:43;10.80;92.00
41884;DHT22;27566;50.930;5.328;2023-12-20T23:40:09;10.70;92.30
41884;DHT22;27566;50.930;5.328;2023-12-20T23:42:35;10.80;92.30
41884;DHT22;27566;50.930;5.328;2023-12-20T23:45:00;10.70;92.20
41884;DHT22;27566;50.930;5.328;2023-12-20T23:47:26;10.70;92.30
41884;DHT22;27566;50.930;5.328;2023-12-20T23:49:52;10.30;92.20
41884;DHT22;27566;50.930;5.328;2023-12-20T23:52:18;10.80;92.50
41884;DHT22;27566;50.930;5.328;2023-12-20T23:57:10;10.80;92.10
41884;DHT22;27566;50.930;5.328;2023-12-20T23:59:35;10.80;92.40
